Time;durP1;ratioP1;P1;durP2;ratioP2;P2;SDS_P1;SDS_P2;PMS_P1;PMS_P2;Temp;Humidity;BMP_temperature;BMP_pressure;BME280_temperature;BME280_humidity;BME280_pressure;Samples;Min_cycle;Max_cycle;Signal;HPM_P1;HPM_P2
2023/07/25 00:00:41;;;;;;;7.03;3.60;;;16.80;99.90;;;;;;5059290;28;20075;-43
2023/07/25 00:03:09;;;;;;;5.50;3.20;;;16.90;99.90;;;;;;5060017;28;20060;-40
2023/07/25 00:05:36;;;;;;;6.25;3.47;;;16.90;99.90;;;;;;5065819;28;20520;-40
2023/07/25 00:08:04;;;;;;;5.90;3.63;;;16.80;99.90;;;;;;5056880;28;20052;-42
2023/07/25 00:10:34;;;;;;;6.82;3.80;;;16.70;99.90;;;;;;5053135;28;20502;-40
2023/07/25 00:13:01;;;;;;;7.10;3.88;;;16.70;99.90;;;;;;5058647;28;20381;-42
2023/07/25 00:15:28;;;;;;;5.72;3.45;;;16.70;99.90;;;;;;5047190;28;20140;-41
2023/07/25 00:17:56;;;;;;;7.72;3.67;;;16.70;99.90;;;;;;5054079;28;20115;-40
2023/07/25 00:20:24;;;;;;;5.15;3.47;;;16.70;99.90;;;;;;5050213;28;20409;-43
2023/07/25 00:22:51;;;;;;;8.48;3.95;;;16.70;99.90;;;;;;5051056;28;20049;-41
2023/07/25 00:25:19;;;;;;;6.90;3.75;;;16.70;99.90;;;;;;5050403;28;20039;-42
2023/07/25 00:27:46;;;;;;;7.70;3.67;;;16.70;99.90;;;;;;5051405;28;20056;-42
2023/07/25 00:30:13;;;;;;;6.72;3.20;;;16.70;99.90;;;;;;5056030;28;20041;-42
2023/07/25 00:32:41;;;;;;;5.03;3.50;;;16.60;99.90;;;;;;5050126;28;20049;-42
2023/07/25 00:35:09;;;;;;;6.10;3.70;;;16.70;99.90;;;;;;5048570;28;20041;-42
2023/07/25 00:37:36;;;;;;;5.82;3.50;;;16.70;99.90;;;;;;5062492;28;20060;-40
2023/07/25 00:40:04;;;;;;;5.90;3.70;;;16.60;99.90;;;;;;5051147;28;20124;-42
2023/07/25 00:42:31;;;;;;;9.65;3.78;;;16.70;99.90;;;;;;5046179;28;20076;-42
2023/07/25 00:44:59;;;;;;;6.10;3.72;;;16.60;99.90;;;;;;5047055;28;20053;-43
2023/07/25 00:47:26;;;;;;;4.80;3.17;;;16.70;99.90;;;;;;5037958;28;20573;-44
2023/07/25 00:49:54;;;;;;;6.60;3.90;;;16.70;99.90;;;;;;5054724;28;20047;-42
2023/07/25 00:52:22;;;;;;;5.68;3.67;;;16.70;99.90;;;;;;5055552;28;20150;-41
2023/07/25 00:54:50;;;;;;;7.18;3.40;;;16.70;99.90;;;;;;5053261;28;20131;-42
2023/07/25 00:57:20;;;;;;;4.97;3.40;;;16.70;99.90;;;;;;5051816;28;20081;-42
2023/07/25 00:59:48;;;;;;;6.50;3.85;;;16.60;99.90;;;;;;5053869;28;20045;-41
2023/07/25 01:02:16;;;;;;;6.38;3.15;;;16.60;99.90;;;;;;5053043;28;20048;-44
2023/07/25 01:04:43;;;;;;;5.72;3.80;;;16.60;99.90;;;;;;5054025;28;20128;-39
2023/07/25 01:07:15;;;;;;;6.80;3.70;;;16.60;99.90;;;;;;5049072;28;20048;-41
2023/07/25 01:09:44;;;;;;;5.30;3.30;;;16.60;99.90;;;;;;5056240;28;20525;-43
2023/07/25 01:12:12;;;;;;;6.20;3.45;;;16.50;99.90;;;;;;5054279;28;20068;-42
2023/07/25 01:14:40;;;;;;;8.68;4.07;;;16.50;99.90;;;;;;5040772;28;20041;-41
2023/07/25 01:17:15;;;;;;;5.65;3.22;;;16.50;99.90;;;;;;5036216;28;20510;-42
2023/07/25 01:19:46;;;;;;;7.10;3.80;;;16.50;99.90;;;;;;5056286;28;20148;-43
2023/07/25 01:22:14;;;;;;;6.70;3.27;;;16.50;99.90;;;;;;5063613;28;20152;-42
2023/07/25 01:24:44;;;;;;;5.88;3.63;;;16.50;99.90;;;;;;5071462;28;20048;-42
2023/07/25 01:27:14;;;;;;;7.18;3.15;;;16.50;99.90;;;;;;5035902;28;20056;-43
2023/07/25 01:29:42;;;;;;;6.00;3.72;;;16.60;99.90;;;;;;5054127;28;20068;-42
2023/07/25 01:32:10;;;;;;;4.40;3.00;;;16.60;99.90;;;;;;5054105;28;20116;-42
2023/07/25 01:34:38;;;;;;;5.65;3.20;;;16.60;99.90;;;;;;5041694;28;20057;-41
2023/07/25 01:37:06;;;;;;;5.10;3.25;;;16.60;99.90;;;;;;5061539;28;20041;-42
2023/07/25 01:39:34;;;;;;;5.15;3.40;;;16.60;99.90;;;;;;5053402;28;20049;-42
2023/07/25 01:42:01;;;;;;;5.57;3.58;;;16.60;99.90;;;;;;5053495;28;20053;-44
2023/07/25 01:44:28;;;;;;;4.88;3.30;;;16.60;99.90;;;;;;5061617;28;20071;-42
2023/07/25 01:46:59;;;;;;;5.13;3.15;;;16.60;99.90;;;;;;5063810;28;20037;-41
2023/07/25 01:49:26;;;;;;;5.28;3.20;;;16.60;99.90;;;;;;5035194;28;20041;-43
2023/07/25 01:51:54;;;;;;;7.45;3.30;;;16.60;99.90;;;;;;5041443;28;20048;-42
2023/07/25 01:54:21;;;;;;;7.22;3.45;;;16.50;99.90;;;;;;5066954;28;20527;-44
2023/07/25 01:56:48;;;;;;;7.80;3.90;;;16.50;99.90;;;;;;5057980;28;20142;-42
2023/07/25 01:59:18;;;;;;;7.47;3.65;;;16.50;99.90;;;;;;5033119;28;20037;-42
2023/07/25 02:01:45;;;;;;;5.35;3.17;;;16.50;99.90;;;;;;5041749;28;20055;-41
2023/07/25 02:04:13;;;;;;;6.90;3.42;;;16.50;99.90;;;;;;5058695;28;20037;-40
2023/07/25 02:06:40;;;;;;;5.90;3.30;;;16.50;99.90;;;;;;5052751;28;20056;-42
2023/07/25 02:09:08;;;;;;;5.47;3.28;;;16.50;99.90;;;;;;5054028;28;20199;-42
2023/07/25 02:11:35;;;;;;;6.60;3.30;;;16.60;99.90;;;;;;5066021;28;20041;-42
2023/07/25 02:14:02;;;;;;;4.30;3.05;;;16.60;99.90;;;;;;5055202;28;20570;-41
2023/07/25 02:16:30;;;;;;;5.32;3.47;;;16.60;99.90;;;;;;5053350;28;20048;-42
2023/07/25 02:18:57;;;;;;;8.05;3.60;;;16.60;99.90;;;;;;5038204;28;20527;-41
2023/07/25 02:21:24;;;;;;;5.22;3.40;;;16.60;99.90;;;;;;5036479;28;20095;-42
2023/07/25 02:23:52;;;;;;;6.60;3.53;;;16.60;99.90;;;;;;5050519;28;20406;-43
2023/07/25 02:26:19;;;;;;;6.60;3.53;;;16.70;99.90;;;;;;5043993;28;20147;-42
2023/07/25 02:28:47;;;;;;;5.18;3.25;;;16.60;99.90;;;;;;5052846;28;21513;-41
2023/07/25 02:31:14;;;;;;;6.03;3.30;;;16.60;99.90;;;;;;5051481;28;20596;-43
2023/07/25 02:33:42;;;;;;;6.25;3.55;;;16.60;99.90;;;;;;5033842;28;20060;-42
2023/07/25 02:36:09;;;;;;;6.88;3.83;;;16.60;99.90;;;;;;5039883;28;20028;-41
2023/07/25 02:38:37;;;;;;;5.82;3.30;;;16.60;99.90;;;;;;5052375;28;20049;-43
2023/07/25 02:41:04;;;;;;;5.82;2.80;;;16.60;99.90;;;;;;5052548;28;20056;-45
2023/07/25 02:43:31;;;;;;;5.63;3.60;;;16.50;99.90;;;;;;5069108;28;20460;-44
2023/07/25 02:45:59;;;;;;;5.47;3.20;;;16.60;99.90;;;;;;5052417;28;20103;-44
2023/07/25 02:48:26;;;;;;;7.43;3.88;;;16.60;99.90;;;;;;5057825;28;20079;-42
2023/07/25 02:50:53;;;;;;;6.93;3.45;;;16.60;99.90;;;;;;5037213;28;20049;-43
2023/07/25 02:53:21;;;;;;;6.80;3.58;;;16.60;99.90;;;;;;5065756;28;20083;-45
2023/07/25 02:55:48;;;;;;;7.22;4.25;;;16.60;99.90;;;;;;5042810;28;20047;-43
2023/07/25 02:58:16;;;;;;;5.93;3.92;;;16.60;99.90;;;;;;5060378;28;20052;-43
2023/07/25 03:00:43;;;;;;;6.30;3.90;;;16.60;99.90;;;;;;5041603;28;20520;-45
2023/07/25 03:03:10;;;;;;;5.10;3.40;;;16.70;99.90;;;;;;5036859;28;20051;-43
2023/07/25 03:05:38;;;;;;;5.30;3.53;;;16.70;99.90;;;;;;5057619;28;20049;-43
2023/07/25 03:08:05;;;;;;;5.53;3.35;;;16.70;99.90;;;;;;5067985;28;20056;-45
2023/07/25 03:10:33;;;;;;;7.70;3.38;;;16.70;99.90;;;;;;5056679;28;20549;-44
2023/07/25 03:13:01;;;;;;;6.15;3.58;;;16.70;99.90;;;;;;5056423;28;20124;-43
2023/07/25 03:15:29;;;;;;;6.30;3.50;;;16.60;99.90;;;;;;5060862;28;20521;-43
2023/07/25 03:17:56;;;;;;;7.68;3.42;;;16.60;99.90;;;;;;5039315;28;20053;-45
2023/07/25 03:20:23;;;;;;;5.72;3.58;;;16.60;99.90;;;;;;5060193;28;20056;-45
2023/07/25 03:22:51;;;;;;;7.57;3.67;;;16.60;99.90;;;;;;5056801;28;20064;-43
2023/07/25 03:25:18;;;;;;;5.97;3.85;;;16.50;99.90;;;;;;5052073;28;20421;-43
2023/07/25 03:27:45;;;;;;;5.00;3.22;;;16.50;99.90;;;;;;5058544;28;20184;-43
2023/07/25 03:30:13;;;;;;;7.90;3.55;;;16.50;99.90;;;;;;5065779;28;20036;-43
2023/07/25 03:32:40;;;;;;;6.30;3.50;;;16.50;99.90;;;;;;5042520;28;20051;-45
2023/07/25 03:35:08;;;;;;;6.97;3.78;;;16.50;99.90;;;;;;5044720;28;20032;-45
2023/07/25 03:37:35;;;;;;;6.35;4.00;;;16.50;99.90;;;;;;5047958;28;20040;-47
2023/07/25 03:40:03;;;;;;;6.35;4.45;;;16.50;99.90;;;;;;5054981;28;20477;-44
2023/07/25 03:42:31;;;;;;;6.55;4.55;;;16.50;99.90;;;;;;5042399;28;20036;-44
2023/07/25 03:44:58;;;;;;;8.25;4.15;;;16.50;99.90;;;;;;5062455;28;20056;-43
2023/07/25 03:47:25;;;;;;;7.22;4.15;;;16.50;99.90;;;;;;5056881;28;20048;-43
2023/07/25 03:49:53;;;;;;;6.55;3.63;;;16.50;99.90;;;;;;5058215;28;20041;-45
2023/07/25 03:52:20;;;;;;;6.78;3.90;;;16.50;99.90;;;;;;5039374;28;20049;-45
2023/07/25 03:54:48;;;;;;;6.47;3.72;;;16.60;99.90;;;;;;5067877;28;20162;-44
2023/07/25 03:57:15;;;;;;;6.55;3.95;;;16.60;99.90;;;;;;5066440;28;20029;-44
2023/07/25 03:59:42;;;;;;;5.75;3.67;;;16.60;99.90;;;;;;5040910;28;20099;-43
2023/07/25 04:02:10;;;;;;;6.82;3.65;;;16.60;99.90;;;;;;5036170;28;20127;-44
2023/07/25 04:04:37;;;;;;;8.80;4.20;;;16.60;99.90;;;;;;5040595;28;20520;-43
2023/07/25 04:07:05;;;;;;;6.57;4.28;;;16.60;99.90;;;;;;5031048;28;20068;-43
2023/07/25 04:09:32;;;;;;;6.72;4.43;;;16.60;99.90;;;;;;5041244;28;20475;-44
2023/07/25 04:12:00;;;;;;;6.65;4.43;;;16.60;99.90;;;;;;5057304;28;20037;-42
2023/07/25 04:14:27;;;;;;;6.13;3.80;;;16.60;99.90;;;;;;5059978;28;20693;-42
2023/07/25 04:16:54;;;;;;;5.72;3.95;;;16.70;99.90;;;;;;5048478;28;20058;-43
2023/07/25 04:19:22;;;;;;;5.70;4.00;;;16.70;99.90;;;;;;5057744;28;20127;-45
2023/07/25 04:21:49;;;;;;;7.93;4.57;;;16.70;99.90;;;;;;5059981;28;20344;-43
2023/07/25 04:24:16;;;;;;;7.18;3.92;;;16.70;99.90;;;;;;5061578;28;20051;-43
2023/07/25 04:26:44;;;;;;;10.25;4.57;;;16.80;99.90;;;;;;5063347;28;20145;-44
2023/07/25 04:29:11;;;;;;;7.72;4.03;;;16.90;99.90;;;;;;5065280;28;20049;-45
2023/07/25 04:31:39;;;;;;;7.65;4.60;;;16.90;99.90;;;;;;5066040;28;20049;-45
2023/07/25 04:34:06;;;;;;;7.57;4.00;;;17.00;99.90;;;;;;5052553;28;20052;-45
2023/07/25 04:36:33;;;;;;;7.28;3.80;;;17.00;99.90;;;;;;5053797;28;20047;-44
2023/07/25 04:39:01;;;;;;;6.95;3.53;;;17.00;99.90;;;;;;5056240;28;20479;-45
2023/07/25 04:41:28;;;;;;;9.35;4.85;;;17.10;99.90;;;;;;5044210;28;20084;-44
2023/07/25 04:43:56;;;;;;;14.57;8.13;;;17.10;99.90;;;;;;5055913;28;20115;-46
2023/07/25 04:46:23;;;;;;;7.97;5.07;;;17.20;99.90;;;;;;5069462;28;20048;-44
2023/07/25 04:48:51;;;;;;;6.88;4.00;;;17.30;99.90;;;;;;5046578;28;20053;-43
2023/07/25 04:51:18;;;;;;;7.18;3.67;;;17.30;99.90;;;;;;5040444;28;20123;-43
2023/07/25 04:53:45;;;;;;;6.82;3.83;;;17.40;99.90;;;;;;5063884;28;20528;-43
2023/07/25 04:56:13;;;;;;;8.07;4.25;;;17.40;99.90;;;;;;5048087;28;20131;-44
2023/07/25 04:58:43;;;;;;;9.75;4.22;;;17.50;99.90;;;;;;5054136;28;20125;-46
2023/07/25 05:01:12;;;;;;;7.13;4.10;;;17.50;99.90;;;;;;5043527;28;20041;-43
2023/07/25 05:03:39;;;;;;;7.28;4.00;;;17.60;99.90;;;;;;5064442;28;20458;-44
2023/07/25 05:06:07;;;;;;;8.98;4.60;;;17.60;99.90;;;;;;5062087;28;20063;-46
2023/07/25 05:08:34;;;;;;;8.32;4.20;;;17.70;99.90;;;;;;5061809;28;20067;-42
2023/07/25 05:11:02;;;;;;;7.82;4.35;;;17.80;99.90;;;;;;5053318;28;20051;-44
2023/07/25 05:13:29;;;;;;;6.43;3.90;;;17.80;99.90;;;;;;5065961;28;20076;-45
2023/07/25 05:15:56;;;;;;;6.50;3.97;;;17.90;99.90;;;;;;5064025;28;20051;-42
2023/07/25 05:18:24;;;;;;;5.82;3.75;;;18.00;99.90;;;;;;5056805;28;20071;-46
2023/07/25 05:20:51;;;;;;;7.63;4.30;;;18.00;99.90;;;;;;5061326;28;20068;-44
2023/07/25 05:23:19;;;;;;;7.50;4.25;;;18.00;99.90;;;;;;5066710;28;20053;-43
2023/07/25 05:25:46;;;;;;;6.15;4.13;;;18.10;99.90;;;;;;5057463;28;20136;-44
2023/07/25 05:28:14;;;;;;;6.90;3.72;;;18.20;99.90;;;;;;5053737;28;20049;-43
2023/07/25 05:30:41;;;;;;;7.95;4.35;;;18.20;99.90;;;;;;5061020;28;20048;-43
2023/07/25 05:33:09;;;;;;;6.10;3.92;;;18.30;99.90;;;;;;5062418;28;20041;-44
2023/07/25 05:35:36;;;;;;;8.95;4.03;;;18.20;99.90;;;;;;5058082;28;20527;-45
2023/07/25 05:38:07;;;;;;;8.23;4.28;;;18.30;99.90;;;;;;5054957;28;20044;-43
2023/07/25 05:40:35;;;;;;;7.40;4.00;;;18.40;99.90;;;;;;5057903;28;20124;-45
2023/07/25 05:43:03;;;;;;;10.48;7.60;;;18.40;99.90;;;;;;5064704;28;20053;-43
2023/07/25 05:45:31;;;;;;;7.03;3.90;;;18.60;99.90;;;;;;5054054;28;20049;-45
2023/07/25 05:47:59;;;;;;;6.50;4.40;;;18.60;99.90;;;;;;5064722;28;20083;-43
2023/07/25 05:50:26;;;;;;;7.35;3.70;;;18.70;99.90;;;;;;5057708;28;20049;-44
2023/07/25 05:52:54;;;;;;;6.55;4.07;;;18.80;99.90;;;;;;5053858;28;20044;-42
2023/07/25 05:55:21;;;;;;;9.07;4.10;;;18.90;99.90;;;;;;5065284;28;20420;-45
2023/07/25 05:57:48;;;;;;;6.50;4.03;;;19.00;99.90;;;;;;5056828;28;20239;-45
2023/07/25 06:00:16;;;;;;;8.23;4.45;;;19.00;99.90;;;;;;5046047;28;20048;-44
2023/07/25 06:02:47;;;;;;;7.82;4.18;;;19.00;99.90;;;;;;5058053;28;20083;-46
2023/07/25 06:05:14;;;;;;;8.23;4.55;;;19.00;99.90;;;;;;5056820;28;20048;-42
2023/07/25 06:07:42;;;;;;;11.30;5.35;;;19.10;99.90;;;;;;5058514;28;20052;-44
2023/07/25 06:10:09;;;;;;;5.78;4.20;;;19.00;99.90;;;;;;5056707;28;20463;-49
2023/07/25 06:12:36;;;;;;;6.25;4.22;;;18.80;99.90;;;;;;5058665;28;20534;-48
2023/07/25 06:15:04;;;;;;;11.95;5.93;;;18.70;99.90;;;;;;5059009;28;20044;-48
2023/07/25 06:17:32;;;;;;;13.10;5.30;;;18.40;99.90;;;;;;5059807;28;20080;-49
2023/07/25 06:19:59;;;;;;;13.25;6.22;;;18.20;99.90;;;;;;5063631;28;20041;-47
2023/07/25 06:22:27;;;;;;;9.93;5.47;;;18.10;99.90;;;;;;5051445;28;20060;-47
2023/07/25 06:24:54;;;;;;;8.05;4.30;;;18.00;99.90;;;;;;5059102;28;20040;-44
2023/07/25 06:27:21;;;;;;;7.82;5.10;;;18.00;99.90;;;;;;5062847;28;20056;-47
2023/07/25 06:29:52;;;;;;;8.15;4.45;;;18.10;99.90;;;;;;5057189;28;20093;-47
2023/07/25 06:32:20;;;;;;;9.20;4.32;;;18.30;99.90;;;;;;5058814;28;20481;-45
2023/07/25 06:34:47;;;;;;;10.93;4.75;;;18.40;99.90;;;;;;5061500;28;20041;-45
2023/07/25 06:37:14;;;;;;;6.70;3.90;;;18.00;99.90;;;;;;5057542;28;20082;-47
2023/07/25 06:39:42;;;;;;;7.65;4.20;;;17.90;99.90;;;;;;5059361;28;20108;-47
2023/07/25 06:42:09;;;;;;;6.38;4.20;;;17.90;99.90;;;;;;5060831;28;20135;-46
2023/07/25 06:44:37;;;;;;;8.73;4.20;;;17.90;99.90;;;;;;5048256;28;20098;-46
2023/07/25 06:47:05;;;;;;;8.07;4.07;;;17.90;99.90;;;;;;5063056;28;20114;-46
2023/07/25 06:49:32;;;;;;;10.23;6.50;;;17.90;99.90;;;;;;5065665;28;20072;-48
2023/07/25 06:52:00;;;;;;;12.85;5.10;;;18.00;99.90;;;;;;5066539;28;20431;-44
2023/07/25 06:54:28;;;;;;;7.20;4.20;;;18.10;99.90;;;;;;5059737;28;20454;-46
2023/07/25 06:57:02;;;;;;;11.60;6.53;;;18.10;99.90;;;;;;5067569;28;20468;-45
2023/07/25 06:59:29;;;;;;;7.03;4.35;;;18.20;99.90;;;;;;5040681;28;20057;-44
2023/07/25 07:01:57;;;;;;;5.80;3.90;;;18.30;99.90;;;;;;5037725;28;20053;-45
2023/07/25 07:04:24;;;;;;;8.68;4.57;;;18.30;99.90;;;;;;5036743;28;20049;-45
2023/07/25 07:06:52;;;;;;;9.25;5.75;;;18.40;99.90;;;;;;5043311;28;20046;-44
2023/07/25 07:09:19;;;;;;;8.93;6.53;;;18.50;99.90;;;;;;5030814;28;20037;-47
2023/07/25 07:11:46;;;;;;;9.10;6.10;;;18.50;99.90;;;;;;5037010;28;20513;-44
2023/07/25 07:14:13;;;;;;;8.20;4.75;;;18.60;99.90;;;;;;5039356;28;20049;-45
2023/07/25 07:16:41;;;;;;;7.07;4.43;;;18.70;99.90;;;;;;5043562;28;20121;-44
2023/07/25 07:19:08;;;;;;;10.02;4.80;;;18.60;99.90;;;;;;5041600;28;20053;-46
2023/07/25 07:21:35;;;;;;;7.15;4.75;;;18.50;99.90;;;;;;5045415;28;20603;-46
2023/07/25 07:24:03;;;;;;;10.93;5.45;;;18.40;99.90;;;;;;5039859;28;20170;-45
2023/07/25 07:26:30;;;;;;;9.10;5.10;;;18.40;99.90;;;;;;5045899;28;20069;-47
2023/07/25 07:29:00;;;;;;;9.93;6.00;;;18.40;99.90;;;;;;5044197;28;20056;-47
2023/07/25 07:31:27;;;;;;;10.32;6.15;;;18.50;99.90;;;;;;5045165;28;20838;-46
2023/07/25 07:34:16;;;;;;;11.02;6.28;;;18.50;99.90;;;;;;5038190;28;20529;-45
2023/07/25 07:36:44;;;;;;;10.38;6.57;;;18.60;99.90;;;;;;5038037;28;20553;-43
2023/07/25 07:39:12;;;;;;;7.57;5.80;;;18.60;99.90;;;;;;5040042;28;20061;-46
2023/07/25 07:41:40;;;;;;;8.65;6.22;;;18.60;99.90;;;;;;5046167;28;20133;-43
2023/07/25 07:44:07;;;;;;;12.38;7.10;;;18.70;99.90;;;;;;5039596;28;20053;-45
2023/07/25 07:46:35;;;;;;;10.38;6.07;;;18.70;99.90;;;;;;5044200;28;20053;-46
2023/07/25 07:49:03;;;;;;;9.00;6.75;;;18.70;99.90;;;;;;5044994;28;20049;-45
2023/07/25 07:51:30;;;;;;;11.32;7.28;;;18.50;99.90;;;;;;5044009;28;20544;-46
2023/07/25 07:53:59;;;;;;;10.88;6.78;;;18.20;99.90;;;;;;5037904;28;20140;-42
2023/07/25 07:56:26;;;;;;;10.38;6.40;;;17.90;99.90;;;;;;5037571;28;20045;-44
2023/07/25 07:58:54;;;;;;;14.00;6.88;;;17.60;99.90;;;;;;5041779;28;20068;-44
2023/07/25 08:01:22;;;;;;;10.93;7.05;;;17.60;99.90;;;;;;5038359;28;20051;-43
2023/07/25 08:03:49;;;;;;;11.85;6.70;;;17.50;99.90;;;;;;5043006;28;20045;-45
2023/07/25 08:06:17;;;;;;;13.40;7.28;;;17.60;99.90;;;;;;5038408;28;20127;-43
2023/07/25 08:08:44;;;;;;;11.18;6.10;;;17.90;99.90;;;;;;5026786;28;20166;-44
2023/07/25 08:11:12;;;;;;;12.70;8.23;;;18.00;99.90;;;;;;5021316;28;20500;-42
2023/07/25 08:13:39;;;;;;;9.02;6.43;;;18.20;99.90;;;;;;5028339;28;20045;-42
2023/07/25 08:16:06;;;;;;;14.60;8.65;;;18.30;99.90;;;;;;5022064;28;20189;-44
2023/07/25 08:18:34;;;;;;;7.88;4.88;;;18.40;99.90;;;;;;5021132;28;20057;-42
2023/07/25 08:21:02;;;;;;;10.05;6.13;;;18.30;99.90;;;;;;5022053;28;20072;-39
2023/07/25 08:23:29;;;;;;;6.00;3.88;;;18.30;99.90;;;;;;5029784;28;20462;-40
2023/07/25 08:25:57;;;;;;;7.30;3.85;;;18.00;99.90;;;;;;5025127;28;20057;-41
2023/07/25 08:28:24;;;;;;;7.50;3.88;;;17.80;99.90;;;;;;5026355;28;20054;-39
2023/07/25 08:30:59;;;;;;;6.50;3.08;;;17.60;99.90;;;;;;5028798;28;20065;-40
2023/07/25 08:33:31;;;;;;;7.05;3.40;;;17.40;99.90;;;;;;5023444;28;20060;-37
2023/07/25 08:35:59;;;;;;;;;;;17.30;99.90;;;;;;5030497;28;20045;-39
2023/07/25 08:38:27;;;;;;;6.75;3.60;;;17.20;99.90;;;;;;5023036;28;20339;-44
2023/07/25 08:41:10;;;;;;;6.47;3.30;;;17.00;99.90;;;;;;5028082;28;20038;-43
2023/07/25 08:43:39;;;;;;;6.43;3.38;;;16.80;99.90;;;;;;5027231;28;20149;-45
2023/07/25 08:46:08;;;;;;;7.60;3.00;;;16.70;99.90;;;;;;5028119;28;20076;-40
2023/07/25 08:48:40;;;;;;;6.82;3.10;;;16.50;99.90;;;;;;5027985;28;20072;-44
2023/07/25 08:51:16;;;;;;;7.43;3.28;;;16.30;99.90;;;;;;5027157;28;20489;-43
2023/07/25 08:54:01;;;;;;;8.27;3.60;;;16.30;99.90;;;;;;5028985;28;20057;-45
2023/07/25 08:56:29;;;;;;;6.10;3.10;;;16.20;99.90;;;;;;5026052;28;20438;-43
2023/07/25 08:58:57;;;;;;;11.27;3.67;;;16.20;99.90;;;;;;5027487;28;20049;-44
2023/07/25 09:01:26;;;;;;;6.30;3.53;;;16.00;99.90;;;;;;5019017;28;20050;-43
2023/07/25 09:03:55;;;;;;;6.50;3.20;;;16.10;99.90;;;;;;5025297;28;20506;-43
2023/07/25 09:06:23;;;;;;;5.55;3.17;;;16.10;99.90;;;;;;5025662;28;20060;-43
2023/07/25 09:08:50;;;;;;;5.10;2.55;;;16.20;99.90;;;;;;5024495;28;20119;-42
2023/07/25 09:11:20;;;;;;;5.18;2.65;;;16.20;99.90;;;;;;5027179;28;20132;-41
2023/07/25 09:13:48;;;;;;;6.05;2.60;;;16.30;99.90;;;;;;5020247;28;20468;-43
2023/07/25 09:16:16;;;;;;;5.28;2.75;;;16.40;99.90;;;;;;5022170;28;20054;-38
2023/07/25 09:18:43;;;;;;;7.13;3.85;;;16.50;99.90;;;;;;5026482;28;20054;-41
2023/07/25 09:21:12;;;;;;;4.93;2.85;;;16.60;99.90;;;;;;5028236;28;20525;-40
2023/07/25 09:23:41;;;;;;;5.53;2.58;;;16.70;99.90;;;;;;5028742;28;20049;-41
2023/07/25 09:26:10;;;;;;;4.57;2.30;;;16.90;99.90;;;;;;5021040;28;20430;-44
2023/07/25 09:28:48;;;;;;;6.53;2.85;;;17.10;99.90;;;;;;5020371;28;20056;-43
2023/07/25 09:31:18;;;;;;;5.47;2.47;;;17.50;99.90;;;;;;5021230;28;20053;-43
2023/07/25 09:33:50;;;;;;;6.35;2.60;;;17.80;99.90;;;;;;5027314;28;20580;-43
2023/07/25 09:36:18;;;;;;;5.45;2.97;;;18.10;99.90;;;;;;5021163;28;20045;-42
2023/07/25 09:38:54;;;;;;;4.53;2.80;;;18.40;99.90;;;;;;5022263;28;20188;-42
2023/07/25 09:41:24;;;;;;;4.60;2.70;;;18.70;99.90;;;;;;5019899;28;20131;-43
2023/07/25 09:43:52;;;;;;;4.88;2.60;;;19.00;99.90;;;;;;5024795;28;20049;-39
2023/07/25 09:46:19;;;;;;;6.60;3.42;;;19.00;99.90;;;;;;5027417;28;20093;-44
2023/07/25 09:48:51;;;;;;;6.75;3.10;;;19.50;99.90;;;;;;5026552;28;20411;-41
2023/07/25 09:51:19;;;;;;;;;;;19.70;99.90;;;;;;5029583;28;20037;-41
2023/07/25 09:53:51;;;;;;;4.60;2.70;;;20.00;99.90;;;;;;5027838;28;19972;-39
2023/07/25 09:56:26;;;;;;;3.85;2.47;;;20.00;99.90;;;;;;5026513;28;20034;-41
2023/07/25 09:58:54;;;;;;;6.38;2.38;;;19.80;99.90;;;;;;5027344;28;20139;-40
2023/07/25 10:01:25;;;;;;;3.75;2.60;;;19.50;99.90;;;;;;5026902;28;20129;-37
2023/07/25 10:03:53;;;;;;;4.75;2.80;;;19.40;99.90;;;;;;5027448;28;20474;-41
2023/07/25 10:06:21;;;;;;;5.97;2.72;;;19.30;99.90;;;;;;5020306;28;20065;-42
2023/07/25 10:08:49;;;;;;;4.47;2.90;;;19.20;99.90;;;;;;5019380;28;20406;-42
2023/07/25 10:11:17;;;;;;;3.13;2.20;;;19.50;99.90;;;;;;5027614;28;20136;-42
2023/07/25 10:13:44;;;;;;;3.38;2.28;;;19.80;99.90;;;;;;5013120;28;20501;-40
2023/07/25 10:16:14;;;;;;;4.47;2.10;;;20.10;99.90;;;;;;5026413;28;20361;-43
2023/07/25 10:18:42;;;;;;;5.32;3.05;;;20.20;99.90;;;;;;5023955;28;20042;-42
2023/07/25 10:21:11;;;;;;;4.60;2.65;;;20.50;99.90;;;;;;5026357;28;20486;-42
2023/07/25 10:23:39;;;;;;;4.07;2.45;;;20.80;99.90;;;;;;5033263;28;20472;-42
2023/07/25 10:26:13;;;;;;;5.10;2.42;;;20.80;99.90;;;;;;5027460;28;20041;-41
2023/07/25 10:28:40;;;;;;;3.75;2.40;;;21.20;99.90;;;;;;5026140;28;20284;-43
2023/07/25 10:31:21;;;;;;;3.83;2.47;;;21.50;99.90;;;;;;5026105;28;20052;-43
2023/07/25 10:33:58;;;;;;;4.20;2.40;;;21.50;99.90;;;;;;5018094;28;20041;-43
2023/07/25 10:36:26;;;;;;;4.15;2.63;;;21.30;99.90;;;;;;5026455;28;20580;-41
2023/07/25 10:39:09;;;;;;;3.90;2.70;;;21.00;99.90;;;;;;5025814;28;20038;-44
2023/07/25 10:41:37;;;;;;;3.70;2.55;;;21.10;99.90;;;;;;5021015;28;20046;-43
2023/07/25 10:44:04;;;;;;;5.20;2.75;;;21.50;99.90;;;;;;5025439;28;20552;-42
2023/07/25 10:46:34;;;;;;;3.92;2.45;;;21.60;99.90;;;;;;5024318;28;20053;-41
2023/07/25 10:49:15;;;;;;;3.50;2.50;;;21.30;99.90;;;;;;5025555;28;20326;-44
2023/07/25 10:51:53;;;;;;;3.25;2.40;;;21.20;99.90;;;;;;5026395;28;20433;-40
2023/07/25 10:54:24;;;;;;;4.57;2.90;;;21.20;99.90;;;;;;5026597;28;20128;-39
2023/07/25 10:57:14;;;;;;;5.40;2.78;;;21.30;99.90;;;;;;5026782;28;20056;-43
2023/07/25 10:59:59;;;;;;;6.50;3.20;;;21.60;99.90;;;;;;5025953;28;20592;-43
2023/07/25 11:02:42;;;;;;;7.20;3.50;;;21.40;99.90;;;;;;5023086;28;20078;-42
2023/07/25 11:05:13;;;;;;;6.57;3.40;;;21.70;99.90;;;;;;5020791;28;20072;-42
2023/07/25 11:07:46;;;;;;;6.63;3.55;;;21.80;99.90;;;;;;5020254;28;20050;-42
2023/07/25 11:10:25;;;;;;;5.28;3.38;;;21.80;99.90;;;;;;5026086;28;20053;-42
2023/07/25 11:12:57;;;;;;;5.43;3.63;;;22.10;99.90;;;;;;5023209;28;20530;-43
2023/07/25 11:15:25;;;;;;;4.32;3.00;;;22.40;99.90;;;;;;5021143;28;20061;-42
2023/07/25 11:17:56;;;;;;;5.10;3.60;;;22.50;99.90;;;;;;5024569;28;20049;-44
2023/07/25 11:20:23;;;;;;;6.57;3.70;;;22.90;99.90;;;;;;5025234;28;20249;-44
2023/07/25 11:22:53;;;;;;;6.30;3.50;;;23.20;99.90;;;;;;5013633;28;20064;-45
2023/07/25 11:25:21;;;;;;;6.13;3.50;;;23.30;99.90;;;;;;5019078;28;20449;-44
2023/07/25 11:27:49;;;;;;;5.55;4.00;;;23.20;99.90;;;;;;5024303;28;20473;-42
2023/07/25 11:30:20;;;;;;;6.78;3.85;;;23.40;99.90;;;;;;5021964;28;20127;-42
2023/07/25 11:32:53;;;;;;;5.85;4.03;;;23.70;99.90;;;;;;5024314;28;20042;-41
2023/07/25 11:35:24;;;;;;;7.72;3.80;;;23.80;99.90;;;;;;5021958;28;20045;-40
2023/07/25 11:37:59;;;;;;;5.35;3.67;;;23.90;99.90;;;;;;5022706;28;20060;-40
2023/07/25 11:40:29;;;;;;;4.70;3.88;;;24.20;99.90;;;;;;5024220;28;20051;-39
2023/07/25 11:42:57;;;;;;;4.70;3.80;;;24.20;99.90;;;;;;5019857;28;20049;-43
2023/07/25 11:45:24;;;;;;;5.88;3.90;;;24.50;99.90;;;;;;5029517;28;20052;-39
2023/07/25 11:47:54;;;;;;;5.15;3.63;;;24.70;99.90;;;;;;5029468;28;20060;-38
2023/07/25 11:50:21;;;;;;;4.63;3.80;;;24.20;99.90;;;;;;5030411;28;20049;-40
2023/07/25 11:52:57;;;;;;;5.80;4.03;;;24.30;99.90;;;;;;5028951;28;20049;-44
2023/07/25 11:55:27;;;;;;;4.55;3.75;;;24.40;99.90;;;;;;5029774;28;20053;-42
2023/07/25 11:57:55;;;;;;;8.52;4.40;;;24.70;99.90;;;;;;5030310;28;20037;-44
2023/07/25 12:00:23;;;;;;;5.75;3.95;;;23.80;99.90;;;;;;5030159;28;20065;-43
2023/07/25 12:02:50;;;;;;;5.90;4.38;;;23.90;99.90;;;;;;5021993;28;20037;-43
2023/07/25 12:05:29;;;;;;;5.68;4.20;;;23.80;99.90;;;;;;5023553;28;20041;-43
2023/07/25 12:08:02;;;;;;;7.55;4.05;;;23.90;99.90;;;;;;5030478;28;20083;-41
2023/07/25 12:10:32;;;;;;;6.75;4.20;;;24.20;99.90;;;;;;5027761;28;20056;-39
2023/07/25 12:13:08;;;;;;;7.70;6.28;;;24.30;99.90;;;;;;5029449;28;20120;-43
2023/07/25 12:15:45;;;;;;;5.50;4.10;;;24.00;99.90;;;;;;5024704;28;20079;-40
2023/07/25 12:18:26;;;;;;;4.57;3.85;;;24.20;99.90;;;;;;5028018;28;20155;-41
2023/07/25 12:20:55;;;;;;;5.78;4.40;;;23.90;99.90;;;;;;5028167;28;20122;-41
2023/07/25 12:23:26;;;;;;;;;;;23.20;99.90;;;;;;5030957;28;20390;-42
2023/07/25 12:25:55;;;;;;;6.30;3.90;;;22.90;99.90;;;;;;5029025;28;19927;-42
2023/07/25 12:28:23;;;;;;;5.78;4.00;;;22.50;99.90;;;;;;5029932;28;20418;-44
2023/07/25 12:30:51;;;;;;;5.90;4.20;;;22.70;99.90;;;;;;5029213;28;20099;-42
2023/07/25 12:33:18;;;;;;;5.80;3.85;;;23.10;99.90;;;;;;5028087;28;20144;-43
2023/07/25 12:35:45;;;;;;;6.53;4.22;;;23.10;99.90;;;;;;5021914;28;20129;-44
2023/07/25 12:38:13;;;;;;;7.57;4.50;;;23.20;99.90;;;;;;5027420;28;20042;-42
2023/07/25 12:40:40;;;;;;;6.50;4.20;;;23.10;99.90;;;;;;5022140;28;20042;-43
2023/07/25 12:43:07;;;;;;;8.18;4.47;;;22.90;99.90;;;;;;5020081;28;20057;-44
2023/07/25 12:45:35;;;;;;;5.90;4.28;;;22.60;99.90;;;;;;5025455;28;20434;-42
2023/07/25 12:48:02;;;;;;;6.63;4.00;;;22.30;99.90;;;;;;5025289;28;20083;-42
2023/07/25 12:50:30;;;;;;;6.40;3.88;;;21.50;99.90;;;;;;5028364;28;20049;-42
2023/07/25 12:52:57;;;;;;;5.75;4.53;;;20.90;99.90;;;;;;5027129;28;20502;-44